EDT,Max TemperatureF,Mean TemperatureF,Min TemperatureF,Max Dew PointF,MeanDew PointF,Min DewpointF,Max Humidity, Mean Humidity, Min Humidity, Max Sea Level PressureIn, Mean Sea Level PressureIn, Min Sea Level PressureIn, Max VisibilityMiles, Mean VisibilityMiles, Min VisibilityMiles, Max Wind SpeedMPH, Mean Wind SpeedMPH, Max Gust SpeedMPH,PrecipitationIn, CloudCover, Events, WindDirDegrees
2013-3-1,31,27,23,28,24,19,92,85,78,29.86,29.72,29.60,10,8,2,21,11,28,T,8,Snow,316
2013-3-2,25,23,20,20,17,15,88,78,68,29.85,29.81,29.74,10,8,4,16,10,22,T,8,Snow,321
2013-3-3,24,21,18,16,14,12,84,75,65,29.85,29.78,29.70,10,7,2,18,10,26,T,8,Snow,322
2013-3-4,27,23,19,18,15,12,84,71,57,29.98,29.87,29.77,10,7,2,20,11,28,T,8,Snow,309
2013-3-5,33,27,21,21,18,16,84,70,56,30.07,30.02,29.91,10,8,2,15,7,22,T,5,Snow,2
2013-3-6,36,31,26,27,23,20,81,70,59,30.09,29.99,29.91,10,10,10,18,11,29,0.00,8,,55
2013-3-7,35,30,25,22,19,16,81,66,51,30.18,30.12,30.08,10,8,2,20,12,24,0.03,8,Snow,3
2013-3-8,34,29,24,21,20,17,88,75,61,30.35,30.18,30.09,10,5,1,29,14,38,0.14,7,Snow,340
2013-3-9,47,36,24,21,19,17,81,56,31,30.39,30.33,30.29,10,10,10,12,5,14,0.00,0,,6
2013-3-10,53,42,30,23,19,15,63,45,26,30.28,30.21,30.14,10,10,10,17,9,26,0.00,1,,167
2013-3-11,49,44,39,40,29,23,71,57,42,30.14,30.02,29.85,10,10,10,24,12,36,T,3,,164
2013-3-12,50,41,32,47,38,28,93,87,80,29.90,29.79,29.74,10,7,0,21,10,35,0.70,8,Fog-Rain,297
2013-3-13,38,30,22,28,25,12,92,74,55,29.91,29.83,29.76,10,7,1,25,9,32,T,7,Snow,289
2013-3-14,30,23,16,16,9,2,74,53,31,29.99,29.90,29.83,10,6,1,29,14,43,0.02,6,Snow,302
2013-3-15,32,25,17,28,20,9,92,76,59,29.99,29.79,29.66,10,7,1,12,9,23,0.06,6,Snow,262
2013-3-16,28,23,18,19,16,12,77,70,62,29.95,29.81,29.72,10,8,1,16,5,22,0.01,7,Snow,348
2013-3-17,31,23,15,16,12,9,88,69,50,30.32,30.12,29.94,10,9,2,16,7,23,T,5,Snow,323
2013-3-18,30,22,14,22,15,5,96,68,39,30.34,30.12,29.83,10,5,0,22,12,30,0.27,5,Fog-Snow,130
2013-3-19,39,32,24,30,26,16,100,77,54,29.83,29.73,29.62,10,6,0,24,11,32,0.29,8,Fog-Rain-Snow,209
2013-3-20,33,27,20,21,17,10,92,68,43,29.83,29.78,29.74,10,7,0,22,11,29,0.03,7,Fog-Snow,279
2013-3-21,28,22,15,18,10,4,84,62,40,29.82,29.73,29.63,10,8,1,16,6,18,T,5,Snow,280
2013-3-22,30,25,19,21,18,16,84,74,63,29.88,29.74,29.64,10,7,2,22,11,31,T,8,Snow,277
2013-3-23,34,30,25,23,20,15,88,70,51,29.97,29.86,29.80,10,7,1,20,11,29,0.01,8,Snow,294
2013-3-24,38,31,23,21,18,16,88,66,44,29.95,29.86,29.72,10,10,10,15,6,18,0.00,3,,355
2013-3-25,39,34,28,24,20,18,69,59,48,29.69,29.61,29.52,10,10,10,15,8,18,0.00,6,,48
2013-3-26,41,36,30,28,24,17,85,66,47,29.91,29.78,29.65,10,10,2,17,8,25,T,6,Snow,319
2013-3-27,43,35,27,30,26,20,85,67,48,30.02,29.95,29.87,10,8,1,20,9,28,0.01,7,Snow,301
2013-3-28,40,35,30,29,27,25,92,76,59,30.18,30.04,29.94,10,8,1,16,8,22,0.02,8,Snow,313
2013-3-29,43,38,33,29,27,25,75,65,55,30.18,30.14,30.08,10,10,10,14,6,20,T,7,,309
2013-3-30,50,39,27,26,22,17,85,57,29,30.18,30.13,30.09,10,10,10,15,6,20,0.00,0,,303
2013-3-31,48,40,32,38,31,18,92,66,39,30.09,29.84,29.66,10,8,4,23,9,31,0.31,6,Rain,172